createdAt,value
2022-08-29T00:00:18.238Z,101804.63
2022-08-29T00:02:50.644Z,101787.81
2022-08-29T00:05:19.858Z,101834.16
2022-08-29T00:07:51.371Z,101843.06
2022-08-29T00:10:17.932Z,101762.84
2022-08-29T00:12:44.657Z,101789.69
2022-08-29T00:15:12.672Z,101809.41
2022-08-29T00:17:39.356Z,101759.09
2022-08-29T00:20:08.630Z,101830.94
2022-08-29T00:22:35.154Z,101829.16
2022-08-29T00:25:04.708Z,101661.88
2022-08-29T00:27:32.380Z,101785.66
2022-08-29T00:29:58.829Z,101787.72
2022-08-29T00:32:25.265Z,101740.47
2022-08-29T00:34:52.620Z,101801.19
2022-08-29T00:37:19.234Z,101801.28
2022-08-29T00:39:45.605Z,101783.88
2022-08-29T00:42:11.984Z,101807.75
2022-08-29T00:44:38.357Z,101826.59
2022-08-29T00:47:10.150Z,101808.28
2022-08-29T00:49:39.349Z,101826.06
2022-08-29T00:52:18.226Z,101825.66
2022-08-29T00:54:49.932Z,101784.88
2022-08-29T00:57:19.666Z,101824.44
2022-08-29T00:59:48.104Z,101799.84
2022-08-29T01:02:14.966Z,101818.81
2022-08-29T01:04:41.444Z,101757.78
2022-08-29T01:07:09.937Z,101797.78
2022-08-29T01:09:38.334Z,101820.16
2022-08-29T01:12:18.304Z,101753.56
2022-08-29T01:14:56.365Z,101807.81
2022-08-29T01:17:34.864Z,101779.69
2022-08-29T01:20:14.601Z,101835.59
2022-08-29T01:23:00.832Z,101843.75
2022-08-29T01:25:32.412Z,101768.72
2022-08-29T01:28:23.700Z,101814.41
2022-08-29T01:31:10.453Z,101837.59
2022-08-29T01:33:53.301Z,101843.97
2022-08-29T01:36:23.182Z,101849.50
2022-08-29T01:38:49.994Z,101830.91
2022-08-29T01:41:20.910Z,101852.44
2022-08-29T01:43:51.871Z,101845.59
2022-08-29T01:46:23.068Z,101835.78
2022-08-29T01:48:49.696Z,101747.97
2022-08-29T01:51:17.362Z,101862.69
2022-08-29T01:53:45.036Z,101857.50
2022-08-29T01:56:13.231Z,101854.13
2022-08-29T01:58:39.709Z,101774.56
2022-08-29T02:01:07.103Z,101699.22
2022-08-29T02:03:33.564Z,101821.75
2022-08-29T02:06:01.761Z,101799.91
2022-08-29T02:08:28.940Z,101728.84
2022-08-29T02:10:55.869Z,101846.88
2022-08-29T02:13:24.463Z,101814.63
2022-08-29T02:15:51.913Z,101826.53
2022-08-29T02:18:18.279Z,101818.03
2022-08-29T02:20:45.243Z,101853.22
2022-08-29T02:23:29.769Z,101854.22
2022-08-29T02:25:57.281Z,101821.53
2022-08-29T02:28:23.692Z,101824.22
2022-08-29T02:30:56.900Z,101857.75
2022-08-29T02:33:24.798Z,101852.63
2022-08-29T02:35:51.722Z,101854.44
2022-08-29T02:38:18.191Z,101827.56
2022-08-29T02:40:45.726Z,101855.41
2022-08-29T02:43:12.733Z,101800.53
2022-08-29T02:45:41.203Z,101825.25
2022-08-29T02:48:08.187Z,101842.47
2022-08-29T02:50:35.111Z,101845.34
2022-08-29T02:53:01.832Z,101840.34
2022-08-29T02:55:28.344Z,101811.16
2022-08-29T02:57:54.849Z,101757.53
2022-08-29T03:00:25.391Z,101835.38
2022-08-29T03:02:53.074Z,101833.72
2022-08-29T03:05:23.236Z,101791.88
2022-08-29T03:07:51.058Z,101699.31
2022-08-29T03:10:17.748Z,101835.84
2022-08-29T03:12:44.724Z,101750.34
2022-08-29T03:15:12.446Z,101726.88
2022-08-29T03:17:39.318Z,101821.22
2022-08-29T03:20:07.485Z,101815.94
2022-08-29T03:22:34.673Z,101818.53
2022-08-29T03:25:02.889Z,101754.97
2022-08-29T03:27:32.966Z,101733.84
2022-08-29T03:29:59.510Z,101683.31
2022-08-29T03:32:26.521Z,101736.69
2022-08-29T03:34:54.152Z,101760.72
2022-08-29T03:37:21.057Z,101666.28
2022-08-29T03:39:47.552Z,101776.69
2022-08-29T03:42:13.983Z,101773.16
2022-08-29T03:44:41.321Z,101749.59
2022-08-29T03:47:08.285Z,101696.97
2022-08-29T03:49:34.853Z,101790.25
2022-08-29T03:52:01.738Z,101793.88
2022-08-29T03:54:28.994Z,101720.19
2022-08-29T03:56:56.484Z,101769.84
2022-08-29T03:59:23.069Z,101718.72
2022-08-29T04:01:50.625Z,101756.09
2022-08-29T04:04:37.909Z,101697.06
2022-08-29T04:07:06.313Z,101782.94
2022-08-29T04:09:32.862Z,101777.69
2022-08-29T04:11:59.355Z,101729.09
2022-08-29T04:14:26.421Z,101786.94
2022-08-29T04:16:52.791Z,101782.94
2022-08-29T04:19:20.464Z,101708.44
2022-08-29T04:21:48.696Z,101764.31
2022-08-29T04:24:16.501Z,101728.47
2022-08-29T04:26:42.912Z,101719.28
2022-08-29T04:29:11.236Z,101674.06
2022-08-29T04:31:38.743Z,101801.63
2022-08-29T04:34:07.531Z,101771.81
2022-08-29T04:36:35.810Z,101797.31
2022-08-29T04:39:02.316Z,101758.97
2022-08-29T04:41:28.740Z,101802.75
2022-08-29T04:43:55.124Z,101689.94
2022-08-29T04:46:23.879Z,101770.50
2022-08-29T04:48:52.013Z,101729.31
2022-08-29T04:51:18.416Z,101749.69
2022-08-29T04:53:44.851Z,101743.72
2022-08-29T04:56:12.424Z,101735.03
2022-08-29T04:58:41.997Z,101777.84
2022-08-29T05:01:15.742Z,101818.75
2022-08-29T05:03:42.492Z,101810.63
2022-08-29T05:06:12.269Z,101759.19
2022-08-29T05:08:40.605Z,101799.47
2022-08-29T05:11:11.641Z,101811.94
2022-08-29T05:13:38.409Z,101810.84
2022-08-29T05:16:09.680Z,101797.91
2022-08-29T05:18:36.301Z,101755.00
2022-08-29T05:21:03.276Z,101764.25
2022-08-29T05:23:30.284Z,101814.56
2022-08-29T05:26:03.717Z,101748.63
2022-08-29T05:28:32.448Z,101828.94
2022-08-29T05:31:00.020Z,101783.91
2022-08-29T05:33:30.254Z,101803.97
2022-08-29T05:35:58.124Z,101820.38
2022-08-29T05:38:24.685Z,101808.84
2022-08-29T05:40:51.082Z,101745.19
2022-08-29T05:43:17.608Z,101790.25
2022-08-29T05:45:44.406Z,101745.22
2022-08-29T05:48:11.060Z,101624.59
2022-08-29T05:50:42.364Z,101744.94
2022-08-29T05:53:10.407Z,101833.28
2022-08-29T05:55:44.069Z,101836.78
2022-08-29T05:58:12.043Z,101783.19
2022-08-29T06:00:44.239Z,101840.47
2022-08-29T06:03:11.721Z,101805.31
2022-08-29T06:05:39.421Z,101769.66
2022-08-29T06:08:07.029Z,101833.34
2022-08-29T06:10:34.446Z,101819.19
2022-08-29T06:13:00.838Z,101749.91
2022-08-29T06:15:29.657Z,101675.72
2022-08-29T06:17:56.125Z,101688.31
2022-08-29T06:20:22.621Z,101775.34
2022-08-29T06:22:49.207Z,101828.88
2022-08-29T06:25:38.526Z,101829.25
2022-08-29T06:28:02.570Z,101806.56
2022-08-29T06:30:32.451Z,101807.34
2022-08-29T06:32:59.950Z,101785.72
2022-08-29T06:35:26.533Z,101756.00
2022-08-29T06:37:52.904Z,101779.94
2022-08-29T06:40:20.738Z,101798.44
2022-08-29T06:42:47.221Z,101797.16
2022-08-29T06:45:13.674Z,101845.78
2022-08-29T06:47:40.046Z,101803.31
2022-08-29T06:50:07.065Z,101759.47
2022-08-29T06:52:33.511Z,101791.03
2022-08-29T06:55:02.310Z,101730.03
2022-08-29T06:57:28.777Z,101849.47
2022-08-29T06:59:55.190Z,101773.81
2022-08-29T07:02:21.642Z,101697.97
2022-08-29T07:04:48.153Z,101767.72
2022-08-29T07:07:14.626Z,101726.09
2022-08-29T07:09:41.125Z,101838.03
2022-08-29T07:12:07.533Z,101820.44
2022-08-29T07:14:34.015Z,101815.22
2022-08-29T07:17:00.643Z,101796.63
2022-08-29T07:19:27.430Z,101825.97
2022-08-29T07:21:54.287Z,101807.41
2022-08-29T07:24:25.064Z,101840.31
2022-08-29T07:26:51.625Z,101842.94
2022-08-29T07:29:20.929Z,101847.03
2022-08-29T07:31:48.294Z,101817.09
2022-08-29T07:34:15.858Z,101832.81
2022-08-29T07:36:42.781Z,101819.75
2022-08-29T07:39:13.333Z,101827.19
2022-08-29T07:41:41.354Z,101750.69
2022-08-29T07:44:09.351Z,101739.41
2022-08-29T07:46:35.750Z,101773.72
2022-08-29T07:49:02.141Z,101822.97
2022-08-29T07:51:28.590Z,101818.78
2022-08-29T07:53:56.284Z,101712.66
2022-08-29T07:56:31.565Z,101750.03
2022-08-29T07:59:01.151Z,101789.97
2022-08-29T08:01:28.036Z,101719.69
2022-08-29T08:03:55.331Z,101821.22
2022-08-29T08:06:27.088Z,101805.44
2022-08-29T08:08:54.454Z,101724.09
2022-08-29T08:11:22.043Z,101750.06
2022-08-29T08:13:49.143Z,101810.97
2022-08-29T08:16:18.813Z,101800.97
2022-08-29T08:18:45.244Z,101812.22
2022-08-29T08:21:12.778Z,101717.25
2022-08-29T08:23:40.365Z,101806.75
2022-08-29T08:26:08.130Z,101671.41
2022-08-29T08:28:34.774Z,101767.72
2022-08-29T08:31:05.955Z,101761.06
2022-08-29T08:33:35.510Z,101807.59
2022-08-29T08:36:04.190Z,101804.19
2022-08-29T08:38:31.361Z,101746.88
2022-08-29T08:41:26.898Z,101793.88
2022-08-29T08:43:56.630Z,101811.44
2022-08-29T08:46:36.328Z,101814.44
2022-08-29T08:49:07.933Z,101782.22
2022-08-29T08:51:37.299Z,101607.00
2022-08-29T08:54:08.477Z,101805.22
2022-08-29T08:56:42.047Z,101707.97
2022-08-29T08:59:16.241Z,101777.88
2022-08-29T09:02:07.226Z,101738.47
2022-08-29T09:05:02.075Z,101796.47
2022-08-29T09:07:49.418Z,101804.63
2022-08-29T09:10:45.805Z,101730.66
2022-08-29T09:13:39.836Z,101808.97
2022-08-29T09:16:16.162Z,101742.84
2022-08-29T09:18:44.398Z,101811.81
2022-08-29T09:21:40.128Z,101804.03
2022-08-29T09:24:13.579Z,101767.09
2022-08-29T09:26:40.722Z,101795.75
2022-08-29T09:29:10.108Z,101732.53
2022-08-29T09:31:37.513Z,101728.19
2022-08-29T09:34:13.201Z,101611.88
2022-08-29T09:36:48.715Z,101793.19
2022-08-29T09:39:22.031Z,101797.69
2022-08-29T09:41:53.093Z,101772.75
2022-08-29T09:44:40.763Z,101795.00
2022-08-29T09:47:14.488Z,101733.28
2022-08-29T09:50:00.038Z,101784.00
2022-08-29T09:52:26.472Z,101774.75
2022-08-29T09:54:52.870Z,101715.13
2022-08-29T09:57:19.166Z,101787.88
2022-08-29T09:59:49.580Z,101781.53
2022-08-29T10:02:38.052Z,101747.94
2022-08-29T10:05:13.276Z,101778.03
2022-08-29T10:07:48.900Z,101769.09
2022-08-29T10:10:24.583Z,101749.47
2022-08-29T10:12:55.924Z,101766.69
2022-08-29T10:15:50.614Z,101733.25
2022-08-29T10:18:27.267Z,101746.78
2022-08-29T10:21:02.721Z,101784.09
2022-08-29T10:23:34.830Z,101778.53
2022-08-29T10:26:09.956Z,101771.22
2022-08-29T10:28:48.901Z,101772.31
2022-08-29T10:31:42.798Z,101747.56
2022-08-29T10:34:26.832Z,101697.84
2022-08-29T10:37:01.962Z,101744.94
2022-08-29T10:39:45.809Z,101737.81
2022-08-29T10:42:19.355Z,101702.50
2022-08-29T10:45:02.500Z,101756.38
2022-08-29T10:47:52.136Z,101744.94
2022-08-29T10:50:45.875Z,101692.06
2022-08-29T10:53:38.850Z,101711.22
2022-08-29T10:56:24.801Z,101634.63
2022-08-29T10:59:03.293Z,101727.41
2022-08-29T11:01:42.087Z,101722.16
2022-08-29T11:04:17.804Z,101726.38
2022-08-29T11:06:51.437Z,101675.25
2022-08-29T11:09:30.342Z,101552.72
2022-08-29T11:12:07.884Z,101709.31
2022-08-29T11:14:45.125Z,101728.00
2022-08-29T11:17:14.709Z,101664.44
2022-08-29T11:19:57.949Z,101696.81
2022-08-29T11:22:35.953Z,101662.31
2022-08-29T11:25:22.752Z,101685.63
2022-08-29T11:28:03.494Z,101711.41
2022-08-29T11:30:58.309Z,101712.22
2022-08-29T11:33:38.223Z,101639.06
2022-08-29T11:36:28.184Z,101684.31
2022-08-29T11:39:11.434Z,101653.84
2022-08-29T11:41:48.513Z,101678.78
2022-08-29T11:44:27.011Z,101645.78
2022-08-29T11:46:56.909Z,101663.31
2022-08-29T11:49:38.189Z,101691.38
2022-08-29T11:52:11.102Z,101695.09
2022-08-29T11:54:38.965Z,101719.28
2022-08-29T11:57:05.279Z,101709.59
2022-08-29T11:59:44.261Z,101719.25
2022-08-29T12:02:31.600Z,101711.69
2022-08-29T12:05:16.383Z,101695.91
2022-08-29T12:07:54.391Z,101703.22
2022-08-29T12:10:23.725Z,101704.75
2022-08-29T12:12:57.139Z,101705.03
2022-08-29T12:15:32.489Z,101695.31
2022-08-29T12:18:22.255Z,101668.00
2022-08-29T12:20:50.886Z,101611.53
2022-08-29T12:23:35.716Z,101678.69
2022-08-29T12:26:22.869Z,101668.78
2022-08-29T12:29:01.691Z,101675.19
2022-08-29T12:32:02.111Z,101694.31
2022-08-29T12:34:54.326Z,101694.88
2022-08-29T12:37:39.869Z,101693.03
2022-08-29T12:40:16.885Z,101682.88
2022-08-29T12:42:58.916Z,101689.88
2022-08-29T12:45:27.926Z,101693.72
2022-08-29T12:47:58.657Z,101657.13
2022-08-29T12:50:34.320Z,101688.00
2022-08-29T12:53:05.229Z,101625.47
2022-08-29T12:55:39.841Z,101649.75
2022-08-29T12:58:08.291Z,101671.97
2022-08-29T13:00:35.794Z,101628.63
2022-08-29T13:03:16.364Z,101587.22
2022-08-29T13:05:43.338Z,101504.72
2022-08-29T13:08:36.941Z,101654.66
2022-08-29T13:11:09.672Z,101610.69
2022-08-29T13:13:36.879Z,101671.94
2022-08-29T13:16:07.664Z,101672.63
2022-08-29T13:18:44.694Z,101649.72
2022-08-29T13:21:27.445Z,101657.78
2022-08-29T13:24:03.033Z,101670.25
2022-08-29T13:26:34.098Z,101608.91
2022-08-29T13:29:03.668Z,101675.03
2022-08-29T13:31:36.030Z,101652.00
2022-08-29T13:34:11.001Z,101523.19
2022-08-29T13:36:40.150Z,101665.75
2022-08-29T13:39:25.246Z,101660.63
2022-08-29T13:42:17.177Z,101611.47
2022-08-29T13:44:46.590Z,101644.75
2022-08-29T13:47:19.687Z,101620.59
2022-08-29T13:49:46.627Z,101663.91
2022-08-29T13:52:14.065Z,101607.66
2022-08-29T13:54:42.468Z,101639.94
2022-08-29T13:57:17.214Z,101619.13
2022-08-29T13:59:44.634Z,101625.31
2022-08-29T14:02:12.828Z,101667.66
2022-08-29T14:04:41.120Z,101634.00
2022-08-29T14:07:28.186Z,101639.38
2022-08-29T14:09:55.136Z,101599.19
2022-08-29T14:12:33.590Z,101628.44
2022-08-29T14:15:09.370Z,101607.13
2022-08-29T14:17:39.367Z,101556.16
2022-08-29T14:20:09.342Z,101598.81
2022-08-29T14:22:36.250Z,101492.16
2022-08-29T14:25:03.015Z,101530.22
2022-08-29T14:27:29.694Z,101629.69
2022-08-29T14:29:56.139Z,101532.84
2022-08-29T14:32:24.158Z,101481.19
2022-08-29T14:34:53.509Z,101563.63
2022-08-29T14:37:20.556Z,101641.78
2022-08-29T14:39:48.520Z,101644.59
2022-08-29T14:42:16.901Z,101605.13
2022-08-29T14:44:43.507Z,101584.88
2022-08-29T14:47:10.061Z,101542.41
2022-08-29T14:49:36.494Z,101409.91
2022-08-29T14:52:03.374Z,101553.06
2022-08-29T14:54:29.837Z,101515.16
2022-08-29T14:56:56.352Z,101536.94
2022-08-29T14:59:25.412Z,101555.97
2022-08-29T15:01:54.763Z,101615.50
2022-08-29T15:04:35.692Z,101615.03
2022-08-29T15:07:03.493Z,101532.84
2022-08-29T15:09:29.876Z,101531.09
2022-08-29T15:11:56.235Z,101594.22
2022-08-29T15:14:22.621Z,101534.44
2022-08-29T15:16:49.079Z,101638.50
2022-08-29T15:19:53.365Z,101620.59
2022-08-29T15:22:01.938Z,101557.91
2022-08-29T15:24:28.439Z,101551.78
2022-08-29T15:26:57.418Z,101596.06
2022-08-29T15:29:24.442Z,101603.28
2022-08-29T15:31:56.957Z,101518.81
2022-08-29T15:34:27.101Z,101586.13
2022-08-29T15:36:54.452Z,101575.53
2022-08-29T15:39:21.249Z,101593.25
2022-08-29T15:41:47.900Z,101585.53
2022-08-29T15:44:14.967Z,101586.22
2022-08-29T15:46:50.315Z,101533.56
2022-08-29T15:49:20.012Z,101550.03
2022-08-29T15:51:48.124Z,101594.56
2022-08-29T15:54:15.018Z,101547.47
2022-08-29T15:56:42.027Z,101558.53
2022-08-29T15:59:10.429Z,101442.63
2022-08-29T16:01:41.130Z,101583.53
2022-08-29T16:04:10.046Z,101553.06
2022-08-29T16:06:37.489Z,101511.78
2022-08-29T16:09:15.143Z,101588.69
2022-08-29T16:11:43.689Z,101511.09
2022-08-29T16:14:46.603Z,101581.78
2022-08-29T16:16:57.385Z,101517.28
2022-08-29T16:19:23.795Z,101600.25
2022-08-29T16:21:50.800Z,101566.56
2022-08-29T16:24:17.596Z,101532.75
2022-08-29T16:26:45.956Z,101569.34
2022-08-29T16:29:12.958Z,101551.59
2022-08-29T16:31:39.614Z,101534.66
2022-08-29T16:34:05.984Z,101594.09
2022-08-29T16:36:32.418Z,101593.66
2022-08-29T16:38:58.805Z,101581.38
2022-08-29T16:41:26.587Z,101548.34
2022-08-29T16:43:53.812Z,101522.69
2022-08-29T16:46:23.374Z,101533.25
2022-08-29T16:48:52.737Z,101524.94
2022-08-29T16:51:22.024Z,101575.13
2022-08-29T16:53:48.834Z,101585.31
2022-08-29T16:56:16.317Z,101609.69
2022-08-29T16:59:00.134Z,101570.69
2022-08-29T17:01:36.538Z,101449.22
2022-08-29T17:04:06.077Z,101603.38
2022-08-29T17:06:32.792Z,101581.00
2022-08-29T17:08:59.845Z,101600.44
2022-08-29T17:11:26.709Z,101575.75
2022-08-29T17:13:53.487Z,101571.69
2022-08-29T17:16:20.049Z,101503.03
2022-08-29T17:18:46.764Z,101471.13
2022-08-29T17:21:14.105Z,101537.66
2022-08-29T17:23:40.715Z,101597.47
2022-08-29T17:26:10.213Z,101604.66
2022-08-29T17:28:38.252Z,101597.97
2022-08-29T17:31:05.760Z,101612.75
2022-08-29T17:33:32.915Z,101610.75
2022-08-29T17:36:00.081Z,101602.44
2022-08-29T17:38:27.013Z,101579.28
2022-08-29T17:40:58.361Z,101587.34
2022-08-29T17:43:25.887Z,101607.72
2022-08-29T17:45:52.540Z,101584.44
2022-08-29T17:48:20.166Z,101515.50
2022-08-29T17:50:47.499Z,101518.06
2022-08-29T17:53:14.548Z,101608.44
2022-08-29T17:55:41.403Z,101583.53
2022-08-29T17:58:08.418Z,101619.09
2022-08-29T18:00:35.950Z,101556.13
2022-08-29T18:03:02.416Z,101613.13
2022-08-29T18:05:28.861Z,101584.53
2022-08-29T18:07:56.815Z,101569.09
2022-08-29T18:10:24.377Z,101548.78
2022-08-29T18:12:50.845Z,101449.69
2022-08-29T18:15:17.464Z,101542.25
2022-08-29T18:17:45.415Z,101608.03
2022-08-29T18:20:19.276Z,101607.94
2022-08-29T18:22:47.385Z,101416.50
2022-08-29T18:25:14.404Z,101609.44
2022-08-29T18:27:43.614Z,101606.16
2022-08-29T18:30:13.415Z,101603.88
2022-08-29T18:32:41.098Z,101484.03
2022-08-29T18:35:08.448Z,101584.44
2022-08-29T18:37:34.863Z,101597.72
2022-08-29T18:40:02.013Z,101613.81
2022-08-29T18:42:40.019Z,101571.66
2022-08-29T18:45:08.102Z,101613.84
2022-08-29T18:47:34.498Z,101588.53
2022-08-29T18:50:19.546Z,101618.47
2022-08-29T18:52:51.546Z,101581.88
2022-08-29T18:55:18.188Z,101578.31
2022-08-29T18:57:46.294Z,101605.47
2022-08-29T19:00:13.354Z,101474.19
2022-08-29T19:02:39.987Z,101614.91
2022-08-29T19:05:06.924Z,101568.25
2022-08-29T19:07:33.570Z,101624.50
2022-08-29T19:10:00.181Z,101631.78
2022-08-29T19:12:26.637Z,101559.19
2022-08-29T19:14:53.080Z,101554.13
2022-08-29T19:17:19.592Z,101628.16
2022-08-29T19:20:10.084Z,101634.81
2022-08-29T19:22:38.049Z,101636.41
2022-08-29T19:25:06.088Z,101623.53
2022-08-29T19:27:43.274Z,101585.34
2022-08-29T19:30:13.490Z,101582.91
2022-08-29T19:32:40.308Z,101636.25
2022-08-29T19:35:07.161Z,101504.91
2022-08-29T19:37:33.645Z,101626.41
2022-08-29T19:40:00.046Z,101609.91
2022-08-29T19:42:27.926Z,101625.16
2022-08-29T19:44:54.885Z,101595.53
2022-08-29T19:47:22.893Z,101651.75
2022-08-29T19:49:50.992Z,101640.31
2022-08-29T19:52:17.902Z,101659.44
2022-08-29T19:54:44.335Z,101656.28
2022-08-29T19:57:13.315Z,101584.44
2022-08-29T19:59:42.325Z,101632.34
2022-08-29T20:02:10.576Z,101648.22
2022-08-29T20:04:37.753Z,101613.53
2022-08-29T20:07:05.387Z,101632.91
2022-08-29T20:09:31.902Z,101647.34
2022-08-29T20:11:59.267Z,101638.97
2022-08-29T20:14:25.871Z,101556.72
2022-08-29T20:16:52.274Z,101605.47
2022-08-29T20:19:21.135Z,101628.22
2022-08-29T20:21:49.843Z,101562.44
2022-08-29T20:24:17.113Z,101646.75
2022-08-29T20:26:46.640Z,101555.34
2022-08-29T20:29:13.915Z,101574.47
2022-08-29T20:31:40.402Z,101658.28
2022-08-29T20:34:07.041Z,101589.28
2022-08-29T20:36:52.228Z,101610.31
2022-08-29T20:39:20.560Z,101661.75
2022-08-29T20:41:52.029Z,101529.00
2022-08-29T20:44:20.207Z,101588.88
2022-08-29T20:46:47.152Z,101654.84
2022-08-29T20:49:16.885Z,101643.38
2022-08-29T20:51:44.361Z,101569.09
2022-08-29T20:54:15.989Z,101607.09
2022-08-29T20:56:42.663Z,101655.34
2022-08-29T20:59:10.302Z,101659.81
2022-08-29T21:01:38.027Z,101565.16
2022-08-29T21:04:24.746Z,101491.59
2022-08-29T21:06:55.829Z,101650.75
2022-08-29T21:09:22.515Z,101585.03
2022-08-29T21:11:49.701Z,101616.88
2022-08-29T21:14:16.136Z,101608.63
2022-08-29T21:16:42.533Z,101654.38
2022-08-29T21:19:10.916Z,101637.50
2022-08-29T21:21:39.173Z,101625.38
2022-08-29T21:24:06.626Z,101647.03
2022-08-29T21:26:33.975Z,101572.59
2022-08-29T21:29:01.530Z,101660.84
2022-08-29T21:31:28.082Z,101542.31
2022-08-29T21:33:54.690Z,101625.97
2022-08-29T21:36:25.653Z,101643.78
2022-08-29T21:38:54.752Z,101593.28
2022-08-29T21:41:22.283Z,101597.44
2022-08-29T21:43:48.778Z,101652.50
2022-08-29T21:46:21.890Z,101641.97
2022-08-29T21:48:55.857Z,101640.81
2022-08-29T21:51:23.434Z,101563.38
2022-08-29T21:53:51.609Z,101644.22
2022-08-29T21:56:18.121Z,101544.63
2022-08-29T21:58:47.402Z,101650.84
2022-08-29T22:01:14.202Z,101562.56
2022-08-29T22:03:40.688Z,101608.88
2022-08-29T22:06:09.277Z,101612.28
2022-08-29T22:08:37.746Z,101556.19
2022-08-29T22:11:18.213Z,101659.88
2022-08-29T22:13:44.910Z,101661.50
2022-08-29T22:16:30.153Z,101647.38
2022-08-29T22:19:12.318Z,101604.19
2022-08-29T22:21:44.400Z,101660.53
2022-08-29T22:24:12.777Z,101637.13
2022-08-29T22:26:40.936Z,101671.91
2022-08-29T22:29:11.820Z,101668.50
2022-08-29T22:31:38.937Z,101667.88
2022-08-29T22:34:09.272Z,101652.78
2022-08-29T22:36:35.731Z,101627.84
2022-08-29T22:39:02.304Z,101645.47
2022-08-29T22:41:28.775Z,101577.88
2022-08-29T22:44:31.696Z,101578.97
2022-08-29T22:46:43.812Z,101629.63
2022-08-29T22:49:13.283Z,101673.84
2022-08-29T22:51:40.171Z,101681.63
2022-08-29T22:54:25.084Z,101679.06
2022-08-29T22:56:54.384Z,101612.97
2022-08-29T22:59:21.230Z,101564.88
2022-08-29T23:01:47.709Z,101630.47
2022-08-29T23:04:14.569Z,101482.25
2022-08-29T23:06:40.952Z,101668.63
2022-08-29T23:09:07.874Z,101661.50
2022-08-29T23:11:34.509Z,101669.50
2022-08-29T23:14:01.128Z,101505.81
2022-08-29T23:16:29.116Z,101573.69
2022-08-29T23:18:55.547Z,101627.34
2022-08-29T23:21:22.877Z,101658.22
2022-08-29T23:23:50.551Z,101592.25
2022-08-29T23:26:18.232Z,101601.09
2022-08-29T23:28:44.929Z,101644.44
2022-08-29T23:31:11.516Z,101660.69
2022-08-29T23:33:37.974Z,101667.28
2022-08-29T23:36:04.645Z,101594.44
2022-08-29T23:38:31.393Z,101617.38
2022-08-29T23:40:58.361Z,101626.59
2022-08-29T23:43:25.410Z,101658.44
2022-08-29T23:45:51.996Z,101612.06
2022-08-29T23:48:18.448Z,101558.06
2022-08-29T23:50:53.247Z,101659.72
2022-08-29T23:53:21.093Z,101619.63
2022-08-29T23:55:48.029Z,101611.47
2022-08-29T23:58:15.053Z,101652.66
